createdAt,value
2023-03-06T00:02:02.731Z,5.25
2023-03-06T00:04:29.834Z,5.78
2023-03-06T00:06:56.994Z,5.57
2023-03-06T00:09:24.052Z,5.53
2023-03-06T00:11:51.123Z,5.55
2023-03-06T00:14:18.280Z,5.18
2023-03-06T00:16:45.385Z,5.32
2023-03-06T00:19:12.475Z,5.40
2023-03-06T00:21:41.410Z,4.70
2023-03-06T00:24:08.623Z,5.80
2023-03-06T00:26:36.660Z,5.15
2023-03-06T00:29:03.866Z,4.50
2023-03-06T00:31:30.972Z,4.45
2023-03-06T00:33:58.060Z,5.13
2023-03-06T00:36:25.212Z,4.72
2023-03-06T00:38:52.333Z,4.05
2023-03-06T00:41:19.619Z,5.97
2023-03-06T00:43:47.145Z,4.60
2023-03-06T00:46:14.239Z,4.20
2023-03-06T00:48:41.311Z,4.97
2023-03-06T00:51:08.633Z,4.93
2023-03-06T00:53:35.712Z,5.07
2023-03-06T00:56:02.866Z,5.00
2023-03-06T00:58:30.116Z,5.78
2023-03-06T01:00:57.374Z,5.72
2023-03-06T01:03:24.483Z,6.43
2023-03-06T01:05:51.639Z,6.03
2023-03-06T01:08:18.719Z,5.70
2023-03-06T01:10:45.820Z,5.55
2023-03-06T01:13:13.018Z,5.80
2023-03-06T01:15:40.143Z,5.82
2023-03-06T01:18:07.320Z,5.55
2023-03-06T01:20:34.517Z,5.30
2023-03-06T01:23:01.655Z,5.80
2023-03-06T01:25:28.870Z,5.80
2023-03-06T01:27:56.112Z,5.40
2023-03-06T01:30:23.230Z,5.50
2023-03-06T01:32:50.374Z,5.85
2023-03-06T01:35:17.588Z,5.78
2023-03-06T01:37:44.666Z,4.40
2023-03-06T01:40:12.478Z,5.07
2023-03-06T01:42:39.685Z,4.97
2023-03-06T01:45:15.911Z,5.07
2023-03-06T01:47:44.850Z,4.55
2023-03-06T01:50:12.656Z,5.43
2023-03-06T01:52:59.950Z,4.93
2023-03-06T01:55:28.564Z,4.55
2023-03-06T01:57:57.702Z,5.07
2023-03-06T02:00:26.521Z,4.93
2023-03-06T02:02:59.239Z,4.93
2023-03-06T02:05:26.311Z,5.97
2023-03-06T02:07:54.280Z,5.53
2023-03-06T02:10:21.703Z,4.88
2023-03-06T02:12:49.954Z,5.13
2023-03-06T02:15:19.044Z,5.32
2023-03-06T02:17:47.442Z,5.00
2023-03-06T02:20:14.708Z,5.47
2023-03-06T02:23:00.978Z,5.30
2023-03-06T02:25:34.167Z,5.22
2023-03-06T02:28:02.035Z,5.10
2023-03-06T02:30:29.893Z,5.70
2023-03-06T02:32:57.147Z,5.22
2023-03-06T02:35:25.897Z,5.63
2023-03-06T02:37:53.257Z,5.00
2023-03-06T02:40:22.001Z,5.32
2023-03-06T02:42:56.267Z,5.40
2023-03-06T02:45:31.041Z,5.38
2023-03-06T02:47:58.317Z,5.40
2023-03-06T02:50:25.434Z,5.85
2023-03-06T02:52:52.541Z,5.60
2023-03-06T02:55:19.750Z,5.53
2023-03-06T02:57:47.083Z,6.00
2023-03-06T03:00:14.853Z,6.10
2023-03-06T03:02:42.100Z,5.80
2023-03-06T03:05:09.315Z,6.38
2023-03-06T03:07:36.620Z,5.80
2023-03-06T03:10:04.202Z,6.05
2023-03-06T03:12:31.418Z,5.40
2023-03-06T03:14:58.506Z,6.15
2023-03-06T03:17:25.675Z,6.15
2023-03-06T03:19:52.786Z,6.35
2023-03-06T03:22:20.328Z,6.38
2023-03-06T03:24:48.003Z,6.65
2023-03-06T03:27:15.520Z,7.15
2023-03-06T03:29:42.767Z,7.32
2023-03-06T03:32:10.675Z,6.93
2023-03-06T03:34:38.024Z,8.80
2023-03-06T03:37:05.153Z,7.20
2023-03-06T03:39:32.661Z,7.28
2023-03-06T03:41:59.839Z,7.63
2023-03-06T03:44:26.940Z,8.07
2023-03-06T03:46:54.107Z,8.35
2023-03-06T03:49:21.214Z,9.13
2023-03-06T03:51:48.330Z,8.93
2023-03-06T03:54:15.562Z,9.65
2023-03-06T03:56:42.639Z,8.68
2023-03-06T03:59:10.107Z,9.18
2023-03-06T04:01:39.521Z,8.85
2023-03-06T04:04:06.993Z,10.70
2023-03-06T04:06:34.099Z,10.45
2023-03-06T04:09:01.270Z,10.32
2023-03-06T04:11:28.349Z,11.02
2023-03-06T04:13:55.429Z,10.48
2023-03-06T04:16:22.648Z,9.18
2023-03-06T04:18:49.847Z,9.15
2023-03-06T04:21:17.156Z,8.88
2023-03-06T04:23:44.301Z,8.80
2023-03-06T04:26:11.387Z,9.25
2023-03-06T04:28:38.525Z,9.07
2023-03-06T04:31:05.918Z,10.35
2023-03-06T04:33:33.073Z,10.25
2023-03-06T04:36:00.229Z,10.50
2023-03-06T04:38:27.451Z,12.02
2023-03-06T04:40:54.637Z,11.15
2023-03-06T04:43:21.941Z,13.02
2023-03-06T04:45:49.224Z,12.07
2023-03-06T04:48:17.944Z,11.60
2023-03-06T04:50:45.160Z,11.35
2023-03-06T04:53:12.391Z,10.60
2023-03-06T04:55:39.477Z,11.90
2023-03-06T04:58:06.550Z,12.18
2023-03-06T05:00:33.723Z,11.77
2023-03-06T05:03:01.470Z,11.23
2023-03-06T05:05:28.838Z,10.48
2023-03-06T05:07:56.378Z,11.45
2023-03-06T05:10:23.582Z,11.90
2023-03-06T05:12:50.689Z,11.25
2023-03-06T05:15:18.288Z,11.75
2023-03-06T05:17:46.492Z,11.43
2023-03-06T05:20:14.639Z,11.60
2023-03-06T05:22:42.069Z,10.82
2023-03-06T05:25:10.583Z,10.32
2023-03-06T05:27:38.206Z,10.30
2023-03-06T05:30:05.798Z,9.52
2023-03-06T05:32:35.479Z,9.90
2023-03-06T05:35:02.847Z,10.25
2023-03-06T05:37:30.017Z,11.20
2023-03-06T05:39:57.317Z,10.10
2023-03-06T05:42:24.471Z,10.88
2023-03-06T05:44:51.715Z,11.57
2023-03-06T05:47:18.854Z,11.43
2023-03-06T05:49:45.950Z,11.95
2023-03-06T05:52:14.928Z,10.82
2023-03-06T05:54:42.042Z,10.98
2023-03-06T05:57:09.153Z,11.18
2023-03-06T05:59:36.381Z,12.07
2023-03-06T06:02:05.501Z,11.90
2023-03-06T06:04:32.698Z,11.05
2023-03-06T06:07:00.806Z,12.73
2023-03-06T06:09:28.069Z,11.80
2023-03-06T06:11:56.628Z,11.73
2023-03-06T06:14:24.101Z,10.85
2023-03-06T06:16:51.179Z,11.82
2023-03-06T06:19:20.104Z,11.55
2023-03-06T06:21:48.238Z,11.45
2023-03-06T06:24:16.355Z,11.23
2023-03-06T06:26:43.757Z,11.10
2023-03-06T06:29:11.165Z,10.52
2023-03-06T06:31:38.282Z,11.30
2023-03-06T06:34:06.124Z,9.50
2023-03-06T06:36:33.529Z,10.40
2023-03-06T06:39:00.657Z,11.23
2023-03-06T06:41:42.644Z,10.23
2023-03-06T06:44:16.251Z,9.98
2023-03-06T06:49:32.570Z,10.80
2023-03-06T06:51:59.679Z,9.23
2023-03-06T06:54:27.175Z,9.30
2023-03-06T06:56:54.549Z,8.95
2023-03-06T06:59:23.727Z,9.30
2023-03-06T07:01:51.545Z,8.82
2023-03-06T07:04:19.282Z,8.57
2023-03-06T07:06:46.894Z,8.23
2023-03-06T07:09:14.429Z,7.45
2023-03-06T07:11:41.775Z,7.65
2023-03-06T07:14:08.956Z,7.47
2023-03-06T07:16:36.079Z,8.15
2023-03-06T07:19:03.253Z,7.63
2023-03-06T07:21:30.755Z,7.25
2023-03-06T07:23:58.278Z,8.10
2023-03-06T07:26:26.288Z,8.52
2023-03-06T07:28:53.817Z,9.48
2023-03-06T07:31:25.577Z,7.82
2023-03-06T07:33:53.638Z,7.75
2023-03-06T07:36:21.540Z,7.93
2023-03-06T07:38:48.709Z,7.25
2023-03-06T07:41:16.586Z,8.60
2023-03-06T07:43:44.412Z,6.93
2023-03-06T07:46:12.709Z,8.07
2023-03-06T07:48:39.952Z,7.30
2023-03-06T07:51:08.603Z,7.35
2023-03-06T07:53:35.964Z,5.72
2023-03-06T07:56:08.606Z,5.97
2023-03-06T07:58:36.476Z,5.55
2023-03-06T08:01:04.848Z,5.47
2023-03-06T08:03:32.467Z,6.10
2023-03-06T08:06:12.673Z,7.03
2023-03-06T08:08:40.519Z,6.63
2023-03-06T08:11:08.476Z,6.95
2023-03-06T08:13:35.763Z,7.38
2023-03-06T08:16:03.379Z,6.70
2023-03-06T08:18:30.662Z,7.50
2023-03-06T08:21:07.136Z,7.15
2023-03-06T08:23:34.674Z,6.60
2023-03-06T08:26:03.108Z,6.53
2023-03-06T08:28:30.302Z,6.50
2023-03-06T08:30:58.019Z,7.15
2023-03-06T08:33:28.052Z,6.85
2023-03-06T08:35:55.246Z,7.78
2023-03-06T08:38:22.341Z,7.55
2023-03-06T08:40:49.408Z,7.15
2023-03-06T08:43:16.584Z,7.25
2023-03-06T08:45:43.723Z,5.97
2023-03-06T08:48:10.837Z,5.50
2023-03-06T08:50:37.989Z,5.45
2023-03-06T08:53:05.075Z,4.78
2023-03-06T08:55:32.186Z,4.88
2023-03-06T08:57:59.364Z,5.65
2023-03-06T09:00:26.491Z,5.10
2023-03-06T09:02:53.593Z,4.50
2023-03-06T09:05:20.848Z,4.47
2023-03-06T09:07:48.088Z,4.70
2023-03-06T09:10:16.382Z,4.72
2023-03-06T09:12:50.648Z,5.00
2023-03-06T09:15:19.650Z,5.05
2023-03-06T09:17:47.780Z,4.60
2023-03-06T09:20:15.569Z,5.70
2023-03-06T09:22:42.734Z,4.18
2023-03-06T09:25:11.144Z,5.18
2023-03-06T09:27:38.227Z,5.10
2023-03-06T09:30:05.565Z,4.55
2023-03-06T09:32:32.742Z,3.22
2023-03-06T09:34:59.836Z,3.90
2023-03-06T09:37:26.949Z,4.70
2023-03-06T09:39:54.104Z,3.90
2023-03-06T09:42:23.515Z,4.13
2023-03-06T09:44:59.667Z,4.18
2023-03-06T09:47:41.634Z,4.47
2023-03-06T09:50:11.876Z,5.47
2023-03-06T09:52:46.421Z,5.60
2023-03-06T09:55:13.601Z,4.00
2023-03-06T09:57:59.602Z,4.32
2023-03-06T10:00:34.418Z,3.90
2023-03-06T10:03:08.582Z,4.32
2023-03-06T10:05:39.164Z,5.72
2023-03-06T10:08:07.749Z,4.28
2023-03-06T10:10:53.697Z,5.20
2023-03-06T10:13:33.410Z,3.78
2023-03-06T10:16:15.169Z,5.30
2023-03-06T10:18:42.357Z,4.47
2023-03-06T10:21:23.723Z,3.88
2023-03-06T10:26:20.866Z,2.92
2023-03-06T10:29:07.609Z,2.85
2023-03-06T10:31:35.234Z,4.53
2023-03-06T10:34:22.365Z,3.60
2023-03-06T10:36:51.162Z,3.53
2023-03-06T10:39:22.728Z,3.60
2023-03-06T10:41:50.190Z,3.55
2023-03-06T10:44:19.065Z,3.38
2023-03-06T10:46:47.957Z,3.40
2023-03-06T10:49:15.068Z,3.13
2023-03-06T10:51:55.660Z,3.22
2023-03-06T10:54:22.798Z,4.22
2023-03-06T10:56:49.892Z,3.33
2023-03-06T10:59:25.373Z,3.55
2023-03-06T11:01:54.115Z,3.42
2023-03-06T11:04:32.181Z,3.95
2023-03-06T11:07:13.761Z,2.45
2023-03-06T11:09:41.445Z,2.70
2023-03-06T11:12:20.613Z,3.30
2023-03-06T11:14:47.850Z,3.65
2023-03-06T11:17:28.575Z,2.97
2023-03-06T11:20:14.513Z,3.08
2023-03-06T11:22:42.503Z,3.55
2023-03-06T11:25:12.835Z,3.50
2023-03-06T11:27:42.827Z,3.43
2023-03-06T11:30:28.120Z,3.22
2023-03-06T11:33:01.066Z,2.45
2023-03-06T11:35:39.980Z,2.50
2023-03-06T11:38:13.574Z,3.30
2023-03-06T11:40:46.451Z,4.60
2023-03-06T11:43:19.379Z,3.40
2023-03-06T11:45:47.905Z,2.70
2023-03-06T11:48:15.009Z,2.70
2023-03-06T11:50:43.413Z,3.38
2023-03-06T11:53:12.063Z,5.45
2023-03-06T11:55:42.635Z,3.70
2023-03-06T11:58:28.338Z,3.63
2023-03-06T12:01:16.856Z,4.35
2023-03-06T12:03:44.178Z,4.15
2023-03-06T12:06:29.968Z,3.95
2023-03-06T12:09:15.468Z,2.85
2023-03-06T12:11:48.398Z,3.28
2023-03-06T12:14:22.871Z,2.22
2023-03-06T12:16:50.007Z,2.50
2023-03-06T12:19:26.153Z,2.20
2023-03-06T12:21:56.149Z,2.20
2023-03-06T12:24:32.155Z,1.88
2023-03-06T12:27:17.789Z,2.20
2023-03-06T12:29:58.288Z,2.20
2023-03-06T12:32:47.692Z,2.53
2023-03-06T12:35:14.841Z,1.65
2023-03-06T12:38:06.737Z,1.95
2023-03-06T12:40:52.599Z,2.63
2023-03-06T12:43:45.920Z,1.95
2023-03-06T12:46:17.715Z,2.67
2023-03-06T12:48:48.366Z,2.10
2023-03-06T12:51:17.754Z,1.95
2023-03-06T12:53:45.053Z,1.60
2023-03-06T12:56:15.057Z,3.88
2023-03-06T12:58:48.472Z,3.45
2023-03-06T13:01:27.628Z,2.92
2023-03-06T13:04:05.094Z,2.53
2023-03-06T13:07:01.277Z,1.90
2023-03-06T13:09:39.732Z,1.95
2023-03-06T13:12:16.817Z,2.25
2023-03-06T13:14:53.788Z,2.65
2023-03-06T13:17:21.428Z,2.08
2023-03-06T13:19:48.707Z,3.47
2023-03-06T13:22:27.587Z,2.65
2023-03-06T13:25:13.553Z,1.88
2023-03-06T13:27:52.938Z,2.30
2023-03-06T13:30:25.714Z,2.33
2023-03-06T13:32:53.211Z,1.73
2023-03-06T13:35:32.637Z,1.92
2023-03-06T13:38:00.610Z,1.80
2023-03-06T13:40:32.213Z,2.30
2023-03-06T13:43:08.130Z,2.40
2023-03-06T13:45:39.042Z,1.80
2023-03-06T13:48:41.668Z,1.70
2023-03-06T13:50:55.506Z,1.90
2023-03-06T13:53:35.345Z,1.95
2023-03-06T13:56:06.481Z,1.90
2023-03-06T13:58:52.199Z,1.75
2023-03-06T14:01:38.230Z,1.90
2023-03-06T14:04:19.550Z,1.65
2023-03-06T14:07:03.229Z,1.90
2023-03-06T14:09:35.615Z,2.38
2023-03-06T14:12:15.013Z,2.35
2023-03-06T14:14:48.959Z,2.20
2023-03-06T14:17:19.569Z,2.63
2023-03-06T14:19:46.868Z,2.78
2023-03-06T14:22:17.655Z,3.55
2023-03-06T14:24:52.906Z,2.50
2023-03-06T14:27:20.300Z,2.00
2023-03-06T14:29:48.749Z,2.13
2023-03-06T14:32:22.349Z,1.88
2023-03-06T14:34:49.620Z,1.63
2023-03-06T14:37:21.382Z,1.65
2023-03-06T14:39:48.619Z,1.60
2023-03-06T14:42:15.681Z,2.63
2023-03-06T14:44:44.148Z,3.40
2023-03-06T14:47:23.333Z,2.83
2023-03-06T14:50:10.415Z,3.72
2023-03-06T14:52:38.417Z,3.83
2023-03-06T14:55:10.668Z,3.17
2023-03-06T14:57:38.044Z,3.67
2023-03-06T15:00:06.953Z,4.82
2023-03-06T15:02:34.272Z,4.07
2023-03-06T15:05:04.099Z,3.88
2023-03-06T15:07:32.554Z,4.00
2023-03-06T15:10:00.196Z,3.20
2023-03-06T15:12:27.260Z,3.85
2023-03-06T15:14:58.598Z,4.15
2023-03-06T15:19:54.633Z,5.03
2023-03-06T15:22:41.525Z,5.90
2023-03-06T15:25:08.753Z,6.05
2023-03-06T15:27:36.104Z,6.60
2023-03-06T15:30:12.570Z,6.25
2023-03-06T15:32:42.569Z,5.18
2023-03-06T15:35:25.084Z,5.57
2023-03-06T15:37:52.590Z,5.60
2023-03-06T15:40:20.398Z,5.60
2023-03-06T15:42:49.510Z,6.47
2023-03-06T15:45:18.945Z,6.85
2023-03-06T15:47:47.028Z,5.97
2023-03-06T15:50:19.671Z,5.50
2023-03-06T15:52:47.303Z,5.80
2023-03-06T15:55:14.899Z,6.55
2023-03-06T15:57:45.349Z,7.47
2023-03-06T16:00:27.044Z,8.07
2023-03-06T16:02:55.319Z,7.68
2023-03-06T16:05:22.741Z,9.38
2023-03-06T16:07:49.852Z,10.88
2023-03-06T16:10:21.949Z,8.43
2023-03-06T16:12:56.866Z,9.63
2023-03-06T16:15:28.284Z,8.82
2023-03-06T16:20:23.493Z,9.82
2023-03-06T16:22:50.875Z,8.98
2023-03-06T16:25:18.560Z,9.07
2023-03-06T16:27:48.621Z,9.43
2023-03-06T16:30:18.041Z,7.95
2023-03-06T16:32:45.514Z,7.47
2023-03-06T16:35:13.392Z,7.38
2023-03-06T16:37:41.085Z,6.88
2023-03-06T16:40:17.381Z,8.57
2023-03-06T16:42:44.577Z,8.30
2023-03-06T16:45:12.032Z,8.80
2023-03-06T16:47:39.763Z,8.77
2023-03-06T16:50:07.243Z,7.93
2023-03-06T16:52:34.325Z,8.07
2023-03-06T16:55:01.419Z,8.43
2023-03-06T16:57:32.194Z,10.98
2023-03-06T16:59:59.318Z,8.25
2023-03-06T17:02:26.427Z,7.40
2023-03-06T17:04:53.641Z,5.97
2023-03-06T17:07:20.751Z,5.78
2023-03-06T17:09:47.863Z,6.47
2023-03-06T17:12:15.143Z,6.03
2023-03-06T17:14:42.303Z,6.35
2023-03-06T17:17:09.430Z,6.60
2023-03-06T17:19:36.722Z,6.38
2023-03-06T17:22:03.793Z,9.68
2023-03-06T17:24:30.868Z,8.27
2023-03-06T17:26:58.066Z,10.23
2023-03-06T17:29:25.185Z,11.50
2023-03-06T17:31:52.290Z,10.93
2023-03-06T17:34:19.536Z,11.05
2023-03-06T17:36:46.625Z,10.82
2023-03-06T17:39:13.768Z,10.27
2023-03-06T17:41:40.927Z,10.10
2023-03-06T17:44:08.160Z,10.32
2023-03-06T17:46:35.353Z,10.50
2023-03-06T17:49:02.626Z,10.50
2023-03-06T17:51:29.885Z,10.43
2023-03-06T17:53:57.447Z,11.13
2023-03-06T17:56:24.705Z,11.75
2023-03-06T17:58:52.439Z,10.63
2023-03-06T18:01:20.837Z,10.55
2023-03-06T18:03:49.102Z,11.07
2023-03-06T18:06:16.935Z,9.65
2023-03-06T18:08:44.172Z,11.00
2023-03-06T18:11:11.624Z,9.77
2023-03-06T18:13:40.097Z,11.07
2023-03-06T18:16:08.161Z,11.20
2023-03-06T18:18:35.537Z,10.95
2023-03-06T18:21:06.352Z,10.95
2023-03-06T18:23:34.197Z,11.85
2023-03-06T18:26:12.089Z,10.15
2023-03-06T18:28:42.608Z,11.50
2023-03-06T18:31:16.984Z,10.32
2023-03-06T18:33:44.095Z,11.13
2023-03-06T18:36:11.411Z,11.57
2023-03-06T18:38:40.171Z,11.68
2023-03-06T18:41:08.409Z,12.57
2023-03-06T18:43:36.087Z,10.73
2023-03-06T18:46:03.385Z,11.48
2023-03-06T18:48:30.642Z,12.20
2023-03-06T18:50:57.772Z,12.30
2023-03-06T18:53:24.918Z,12.20
2023-03-06T18:55:53.551Z,12.13
2023-03-06T18:58:21.779Z,10.35
2023-03-06T19:00:49.282Z,12.38
2023-03-06T19:03:16.920Z,11.40
2023-03-06T19:05:45.355Z,12.05
2023-03-06T19:08:12.855Z,12.13
2023-03-06T19:10:41.058Z,12.50
2023-03-06T19:13:08.713Z,11.63
2023-03-06T19:15:39.626Z,13.02
2023-03-06T19:18:06.731Z,13.02
2023-03-06T19:20:33.847Z,12.77
2023-03-06T19:23:01.692Z,12.52
2023-03-06T19:25:28.845Z,14.25
2023-03-06T19:27:55.924Z,13.77
2023-03-06T19:30:25.649Z,13.27
2023-03-06T19:32:53.753Z,14.60
2023-03-06T19:35:21.168Z,13.77
2023-03-06T19:37:48.324Z,12.50
2023-03-06T19:40:15.730Z,13.90
2023-03-06T19:42:42.876Z,13.68
2023-03-06T19:45:10.267Z,13.25
2023-03-06T19:47:37.609Z,13.00
2023-03-06T19:50:04.881Z,12.75
2023-03-06T19:52:32.138Z,13.40
2023-03-06T19:54:59.243Z,13.07
2023-03-06T19:57:26.345Z,14.00
2023-03-06T19:59:53.575Z,13.30
2023-03-06T20:02:26.363Z,13.70
2023-03-06T20:04:54.309Z,13.75
2023-03-06T20:07:21.947Z,13.85
2023-03-06T20:09:49.125Z,14.23
2023-03-06T20:12:16.682Z,14.10
2023-03-06T20:14:46.025Z,15.20
2023-03-06T20:17:13.154Z,14.70
2023-03-06T20:19:40.503Z,14.18
2023-03-06T20:22:07.571Z,13.77
2023-03-06T20:24:34.701Z,15.15
2023-03-06T20:27:02.011Z,14.38
2023-03-06T20:29:29.077Z,14.75
2023-03-06T20:31:57.150Z,15.50
2023-03-06T20:34:24.652Z,14.60
2023-03-06T20:36:52.072Z,15.23
2023-03-06T20:39:22.805Z,15.70
2023-03-06T20:41:50.288Z,17.77
2023-03-06T20:44:19.422Z,16.00
2023-03-06T20:46:46.920Z,17.13
2023-03-06T20:49:14.740Z,16.80
2023-03-06T20:51:42.147Z,18.52
2023-03-06T20:54:10.797Z,20.52
2023-03-06T20:56:39.700Z,20.60
2023-03-06T20:59:07.114Z,21.75
2023-03-06T21:01:39.029Z,21.30
2023-03-06T21:04:06.427Z,19.80
2023-03-06T21:06:33.691Z,20.63
2023-03-06T21:09:01.586Z,24.77
2023-03-06T21:11:29.240Z,21.67
2023-03-06T21:13:56.489Z,20.05
2023-03-06T21:16:24.718Z,21.58
2023-03-06T21:18:52.527Z,20.80
2023-03-06T21:21:21.020Z,20.50
2023-03-06T21:23:48.956Z,21.45
2023-03-06T21:26:20.721Z,21.20
2023-03-06T21:28:47.821Z,21.02
2023-03-06T21:31:16.057Z,21.30
2023-03-06T21:33:43.860Z,20.50
2023-03-06T21:36:11.251Z,22.67
2023-03-06T21:38:38.623Z,21.67
2023-03-06T21:41:08.727Z,21.30
2023-03-06T21:43:35.820Z,22.25
2023-03-06T21:46:03.218Z,21.20
2023-03-06T21:48:30.524Z,22.33
2023-03-06T21:51:04.643Z,22.95
2023-03-06T21:53:31.840Z,23.10
2023-03-06T21:56:01.474Z,22.70
2023-03-06T21:58:28.802Z,22.50
2023-03-06T22:00:56.024Z,25.02
2023-03-06T22:03:23.140Z,25.30
2023-03-06T22:05:51.980Z,24.13
2023-03-06T22:08:24.291Z,24.70
2023-03-06T22:10:51.370Z,23.75
2023-03-06T22:13:19.200Z,24.35
2023-03-06T22:15:53.322Z,23.92
2023-03-06T22:18:20.421Z,22.63
2023-03-06T22:20:47.552Z,23.13
2023-03-06T22:23:14.952Z,22.42
2023-03-06T22:25:42.083Z,24.77
2023-03-06T22:28:09.198Z,24.38
2023-03-06T22:30:36.385Z,26.08
2023-03-06T22:33:03.539Z,26.02
2023-03-06T22:35:30.731Z,25.20
2023-03-06T22:37:58.734Z,23.52
2023-03-06T22:40:26.069Z,22.92
2023-03-06T22:42:53.171Z,23.80
2023-03-06T22:45:20.359Z,22.83
2023-03-06T22:47:47.451Z,21.98
2023-03-06T22:50:14.600Z,21.73
2023-03-06T22:52:41.772Z,20.55
2023-03-06T22:55:09.608Z,19.75
2023-03-06T22:57:36.717Z,19.38
2023-03-06T23:00:04.216Z,18.52
2023-03-06T23:02:35.117Z,19.30
2023-03-06T23:05:02.317Z,19.23
2023-03-06T23:07:29.547Z,19.05
2023-03-06T23:09:56.708Z,19.75
2023-03-06T23:12:23.819Z,18.65
2023-03-06T23:14:51.135Z,18.33
2023-03-06T23:17:18.474Z,18.55
2023-03-06T23:19:45.743Z,18.70
2023-03-06T23:22:14.409Z,16.92
2023-03-06T23:24:41.524Z,17.58
2023-03-06T23:27:08.623Z,16.52
2023-03-06T23:29:35.764Z,17.60
2023-03-06T23:32:03.010Z,17.80
2023-03-06T23:34:30.179Z,17.27
2023-03-06T23:36:57.343Z,16.70
2023-03-06T23:39:24.500Z,18.02
2023-03-06T23:41:51.662Z,17.25
2023-03-06T23:44:18.967Z,18.40
2023-03-06T23:46:46.179Z,18.55
2023-03-06T23:49:13.343Z,16.83
2023-03-06T23:51:40.496Z,17.65
2023-03-06T23:54:07.638Z,16.63
2023-03-06T23:56:34.724Z,17.73
2023-03-06T23:59:01.911Z,17.45
